Terminal Aerodrome Forecast
Issued by NWS

Home | Current Version | Previous Version | Text Only | Print | Product List | Glossary On
Versions: 1 2 3 4 5 6 7 8 9 10 11 12 13 14 15 16 17 18 19 20 21 22 23 24 25 26 27 28 29 30 31 32 33 34
000
FTUS41 KBOX 061122
TAFHYA
TAF
KHYA 061122Z 0612/0712 02009KT 6SM BR OVC008
     FM061600 04010KT P6SM BKN015
     FM062000 07011KT P6SM VCSH BKN025
     FM062200 08011KT P6SM VCSH BKN015
     FM062300 08010G20KT 4SM -RA BR BKN015
     FM070100 08010KT 4SM -RA BR BKN008=

USA.gov is the U.S. government's official web portal to all federal, state and local government web resources and services.